Bookmark and Share
Track history (hours):
 

Houn Maru

Last reported at 2014-Apr-17 23:31 UTC. Time now 2014-Apr-18 00:16 UTC.
Position N 34°23' E 135°13'.

Length 91 m; draft 4.5 m.

Type: Tanker. MMSI: 431101172.

NotesDate/timePositionNaut miles runAvg speedWind from/ knotsBaromVisibWave heightAir tempDewpointWater temp
2014-Apr-17 23:31N 34°23' E 135°13'0 0.0
2014-Apr-17 22:28N 34°23' E 135°13'0 0.0
2014-Apr-17 21:22N 34°23' E 135°13'0 0.0
2014-Apr-17 20:31N 34°23' E 135°13'0 0.0
2014-Apr-17 17:07N 34°23' E 135°13'0 0.0
2014-Apr-17 15:19N 34°23' E 135°13'0 0.1
2014-Apr-17 14:31N 34°23' E 135°13'0 0.0
2014-Apr-17 13:31N 34°23' E 135°13'5 5.1
2014-Apr-17 12:33N 34°26' E 135°08'10 9.9
2014-Apr-17 11:33N 34°35' E 135°03'8 7.4
2014-Apr-17 10:28N 34°35' E 134°53'2 0.1
2014-Apr-16 07:19N 34°36' E 134°55'7 8.8
2014-Apr-16 06:33N 34°36' E 135°03'1010.1
2014-Apr-16 05:33N 34°27' E 135°09'5 0.9
2014-Apr-16 00:13N 34°25' E 135°14'2 3.2
2014-Apr-15 23:32N 34°23' E 135°13'0 0.0
2014-Apr-15 22:29N 34°23' E 135°13'0 0.1
2014-Apr-15 21:32N 34°23' E 135°13'0 0.0
2014-Apr-15 20:32N 34°23' E 135°13'0 0.0
2014-Apr-15 19:32N 34°23' E 135°13'2 1.8
2014-Apr-15 18:33N 34°24' E 135°11'1312.7
2014-Apr-15 17:33N 34°35' E 135°03'7 0.2
2014-Apr-14 05:33N 34°36' E 134°55'19 2.1
2014-Apr-13 20:24N 34°23' E 135°13'0 0.1
2014-Apr-13 19:33N 34°23' E 135°13'0 0.0
2014-Apr-13 18:33N 34°23' E 135°13'0 0.0
2014-Apr-13 17:33N 34°23' E 135°13'0 0.0
2014-Apr-13 16:27N 34°23' E 135°13'0 0.0
2014-Apr-13 15:33N 34°23' E 135°13'0 0.1
2014-Apr-13 14:33N 34°23' E 135°13'4 4.0
2014-Apr-13 13:33N 34°26' E 135°09'1211.5
2014-Apr-13 12:33N 34°36' E 135°02'3 0.1
2014-Apr-12 01:32N 34°38' E 134°60'1211.7
2014-Apr-12 00:33N 34°36' E 135°13'7 0.4
2014-Apr-11 05:33N 34°36' E 135°22'1212.3
2014-Apr-11 04:33N 34°27' E 135°13'2 2.4
2014-Apr-11 03:33N 34°25' E 135°14'0 0.0
2014-Apr-11 02:08N 34°25' E 135°14'0 0.0
2014-Apr-11 01:20N 34°25' E 135°14'0 0.1
2014-Apr-11 00:20N 34°25' E 135°14'2 3.0
2014-Apr-10 23:33N 34°23' E 135°12'0 0.0
2014-Apr-10 22:22N 34°23' E 135°12'0 0.0
2014-Apr-10 21:28N 34°23' E 135°12'0 0.0
2014-Apr-10 20:28N 34°23' E 135°12'0 0.0
2014-Apr-10 19:28N 34°23' E 135°12'0 0.0
2014-Apr-10 18:16N 34°23' E 135°12'0 0.0
2014-Apr-10 17:22N 34°23' E 135°12'0 0.1
2014-Apr-10 16:31N 34°23' E 135°13'0 0.0
2014-Apr-10 15:31N 34°23' E 135°12'0 0.0
2014-Apr-10 14:22N 34°23' E 135°13'0 0.0
2014-Apr-10 13:33N 34°23' E 135°13'9 9.4
2014-Apr-10 12:33N 34°31' E 135°06'10 9.4
2014-Apr-10 11:27N 34°35' E 134°55'6 0.2
2014-Apr-09 05:32N 34°37' E 135°02'1111.3
2014-Apr-09 04:33N 34°27' E 135°08'5 5.4
2014-Apr-09 03:33N 34°25' E 135°14'0 0.0
2014-Apr-09 02:29N 34°25' E 135°14'0 0.0
2014-Apr-09 01:11N 34°25' E 135°14'0 0.0
2014-Apr-09 00:29N 34°25' E 135°14'2 2.6
2014-Apr-08 23:33N 34°23' E 135°12'0 0.0
2014-Apr-08 22:17N 34°23' E 135°12'0 0.0
2014-Apr-08 21:29N 34°23' E 135°12'0 0.0
2014-Apr-08 20:29N 34°23' E 135°12'0 0.0
2014-Apr-08 19:29N 34°23' E 135°12'0 0.0
2014-Apr-08 18:29N 34°23' E 135°12'0 0.0
2014-Apr-08 17:29N 34°23' E 135°12'0 0.0
2014-Apr-08 16:29N 34°23' E 135°12'0 0.0
2014-Apr-08 15:29N 34°23' E 135°12'0 0.0
2014-Apr-08 13:29N 34°23' E 135°12'6 6.2
2014-Apr-08 12:34N 34°28' E 135°08'1211.6
2014-Apr-08 11:31N 34°37' E 134°58'  

Dump ship's entire track history

sailing weather and tide predictions

Houn Maru — JG5489 — position and weather